sensor_id;sensor_type;location;lat;lon;timestamp;P1;durP1;ratioP1;P2;durP2;ratioP2
6850;SDS011;3464;42.728;23.296;2023-08-30T00:00:46;18.70;;;9.17;;
6850;SDS011;3464;42.728;23.296;2023-08-30T00:03:12;17.93;;;8.80;;
6850;SDS011;3464;42.728;23.296;2023-08-30T00:05:39;17.80;;;9.10;;
6850;SDS011;3464;42.728;23.296;2023-08-30T00:14:39;21.80;;;9.00;;
6850;SDS011;3464;42.728;23.296;2023-08-30T00:17:08;19.17;;;9.27;;
6850;SDS011;3464;42.728;23.296;2023-08-30T00:19:41;18.03;;;8.93;;
6850;SDS011;3464;42.728;23.296;2023-08-30T00:25:52;19.17;;;9.57;;
6850;SDS011;3464;42.728;23.296;2023-08-30T00:28:37;17.10;;;8.10;;
6850;SDS011;3464;42.728;23.296;2023-08-30T00:36:43;21.20;;;8.20;;
6850;SDS011;3464;42.728;23.296;2023-08-30T00:39:11;17.43;;;8.97;;
6850;SDS011;3464;42.728;23.296;2023-08-30T00:41:38;19.80;;;8.43;;
6850;SDS011;3464;42.728;23.296;2023-08-30T00:44:05;17.67;;;8.00;;
6850;SDS011;3464;42.728;23.296;2023-08-30T00:46:33;16.37;;;8.03;;
6850;SDS011;3464;42.728;23.296;2023-08-30T00:49:02;16.80;;;8.77;;
6850;SDS011;3464;42.728;23.296;2023-08-30T00:54:13;15.90;;;8.10;;
6850;SDS011;3464;42.728;23.296;2023-08-30T00:56:42;19.53;;;8.70;;
6850;SDS011;3464;42.728;23.296;2023-08-30T00:59:10;18.17;;;7.70;;
6850;SDS011;3464;42.728;23.296;2023-08-30T01:01:37;16.90;;;8.40;;
6850;SDS011;3464;42.728;23.296;2023-08-30T01:04:05;15.67;;;7.30;;
6850;SDS011;3464;42.728;23.296;2023-08-30T01:06:39;19.47;;;8.20;;
6850;SDS011;3464;42.728;23.296;2023-08-30T01:09:08;15.90;;;7.90;;
6850;SDS011;3464;42.728;23.296;2023-08-30T01:11:50;22.70;;;7.70;;
6850;SDS011;3464;42.728;23.296;2023-08-30T01:14:22;16.23;;;7.70;;
6850;SDS011;3464;42.728;23.296;2023-08-30T01:16:50;16.80;;;6.67;;
6850;SDS011;3464;42.728;23.296;2023-08-30T01:19:26;19.03;;;7.90;;
6850;SDS011;3464;42.728;23.296;2023-08-30T01:21:58;19.23;;;8.17;;
6850;SDS011;3464;42.728;23.296;2023-08-30T01:24:41;22.40;;;6.87;;
6850;SDS011;3464;42.728;23.296;2023-08-30T01:27:09;17.27;;;7.07;;
6850;SDS011;3464;42.728;23.296;2023-08-30T01:29:37;17.00;;;7.63;;
6850;SDS011;3464;42.728;23.296;2023-08-30T01:32:04;19.37;;;7.33;;
6850;SDS011;3464;42.728;23.296;2023-08-30T01:34:30;16.70;;;7.50;;
6850;SDS011;3464;42.728;23.296;2023-08-30T01:36:57;17.70;;;8.10;;
6850;SDS011;3464;42.728;23.296;2023-08-30T01:39:24;18.77;;;7.30;;
6850;SDS011;3464;42.728;23.296;2023-08-30T01:41:55;16.13;;;6.87;;
6850;SDS011;3464;42.728;23.296;2023-08-30T01:44:22;19.30;;;7.77;;
6850;SDS011;3464;42.728;23.296;2023-08-30T01:46:48;17.43;;;8.33;;
6850;SDS011;3464;42.728;23.296;2023-08-30T01:49:15;23.07;;;8.30;;
6850;SDS011;3464;42.728;23.296;2023-08-30T01:51:41;17.00;;;7.47;;
6850;SDS011;3464;42.728;23.296;2023-08-30T02:03:59;20.67;;;8.27;;
6850;SDS011;3464;42.728;23.296;2023-08-30T02:12:42;20.70;;;8.70;;
6850;SDS011;3464;42.728;23.296;2023-08-30T02:15:08;18.70;;;7.97;;
6850;SDS011;3464;42.728;23.296;2023-08-30T02:17:37;17.40;;;8.37;;
6850;SDS011;3464;42.728;23.296;2023-08-30T02:20:05;19.07;;;8.90;;
6850;SDS011;3464;42.728;23.296;2023-08-30T02:22:33;17.37;;;8.20;;
6850;SDS011;3464;42.728;23.296;2023-08-30T02:25:00;15.60;;;7.80;;
6850;SDS011;3464;42.728;23.296;2023-08-30T02:27:28;19.83;;;8.93;;
6850;SDS011;3464;42.728;23.296;2023-08-30T02:29:59;20.53;;;7.80;;
6850;SDS011;3464;42.728;23.296;2023-08-30T02:32:29;17.70;;;7.73;;
6850;SDS011;3464;42.728;23.296;2023-08-30T02:34:57;22.10;;;8.80;;
6850;SDS011;3464;42.728;23.296;2023-08-30T03:23:26;20.90;;;7.90;;
6850;SDS011;3464;42.728;23.296;2023-08-30T03:28:45;26.77;;;8.63;;
6850;SDS011;3464;42.728;23.296;2023-08-30T03:31:14;19.13;;;7.73;;
6850;SDS011;3464;42.728;23.296;2023-08-30T03:33:52;20.57;;;8.70;;
6850;SDS011;3464;42.728;23.296;2023-08-30T03:36:22;22.37;;;8.27;;
6850;SDS011;3464;42.728;23.296;2023-08-30T03:38:50;16.07;;;7.27;;
6850;SDS011;3464;42.728;23.296;2023-08-30T03:41:19;17.00;;;8.70;;
6850;SDS011;3464;42.728;23.296;2023-08-30T03:43:49;19.20;;;7.97;;
6850;SDS011;3464;42.728;23.296;2023-08-30T03:46:18;19.63;;;7.97;;
6850;SDS011;3464;42.728;23.296;2023-08-30T03:48:45;17.30;;;8.30;;
6850;SDS011;3464;42.728;23.296;2023-08-30T04:14:13;22.37;;;8.90;;
6850;SDS011;3464;42.728;23.296;2023-08-30T04:16:40;20.33;;;10.60;;
6850;SDS011;3464;42.728;23.296;2023-08-30T04:19:14;18.43;;;8.80;;
6850;SDS011;3464;42.728;23.296;2023-08-30T04:21:43;18.80;;;8.50;;
6850;SDS011;3464;42.728;23.296;2023-08-30T04:24:11;21.97;;;9.00;;
6850;SDS011;3464;42.728;23.296;2023-08-30T04:26:41;26.93;;;9.47;;
6850;SDS011;3464;42.728;23.296;2023-08-30T04:29:09;45.83;;;12.63;;
6850;SDS011;3464;42.728;23.296;2023-08-30T04:31:42;41.93;;;11.40;;
6850;SDS011;3464;42.728;23.296;2023-08-30T04:34:10;30.17;;;11.23;;
6850;SDS011;3464;42.728;23.296;2023-08-30T04:36:38;16.17;;;7.50;;
6850;SDS011;3464;42.728;23.296;2023-08-30T04:39:07;23.80;;;7.90;;
6850;SDS011;3464;42.728;23.296;2023-08-30T04:41:34;20.97;;;8.73;;
6850;SDS011;3464;42.728;23.296;2023-08-30T04:44:02;24.23;;;8.40;;
6850;SDS011;3464;42.728;23.296;2023-08-30T04:46:31;21.50;;;7.70;;
6850;SDS011;3464;42.728;23.296;2023-08-30T04:48:59;24.10;;;7.83;;
6850;SDS011;3464;42.728;23.296;2023-08-30T04:51:26;18.07;;;8.07;;
6850;SDS011;3464;42.728;23.296;2023-08-30T04:53:55;16.73;;;7.30;;
6850;SDS011;3464;42.728;23.296;2023-08-30T04:56:23;20.67;;;7.97;;
6850;SDS011;3464;42.728;23.296;2023-08-30T05:04:36;16.53;;;5.50;;
6850;SDS011;3464;42.728;23.296;2023-08-30T05:07:03;20.53;;;6.03;;
6850;SDS011;3464;42.728;23.296;2023-08-30T05:09:47;14.07;;;4.80;;
6850;SDS011;3464;42.728;23.296;2023-08-30T05:12:14;21.50;;;5.87;;
6850;SDS011;3464;42.728;23.296;2023-08-30T05:14:40;18.97;;;5.80;;
6850;SDS011;3464;42.728;23.296;2023-08-30T05:17:07;17.27;;;5.30;;
6850;SDS011;3464;42.728;23.296;2023-08-30T05:19:35;15.33;;;5.60;;
6850;SDS011;3464;42.728;23.296;2023-08-30T05:22:01;19.30;;;5.53;;
6850;SDS011;3464;42.728;23.296;2023-08-30T05:24:33;13.60;;;4.57;;
6850;SDS011;3464;42.728;23.296;2023-08-30T05:29:50;13.63;;;4.53;;
6850;SDS011;3464;42.728;23.296;2023-08-30T05:38:05;16.60;;;4.23;;
6850;SDS011;3464;42.728;23.296;2023-08-30T05:40:41;14.77;;;3.90;;
6850;SDS011;3464;42.728;23.296;2023-08-30T05:43:09;10.70;;;3.73;;
6850;SDS011;3464;42.728;23.296;2023-08-30T05:45:36;11.90;;;4.20;;
6850;SDS011;3464;42.728;23.296;2023-08-30T05:48:04;15.17;;;3.87;;
6850;SDS011;3464;42.728;23.296;2023-08-30T05:50:39;16.57;;;3.73;;
6850;SDS011;3464;42.728;23.296;2023-08-30T05:53:09;11.67;;;3.63;;
6850;SDS011;3464;42.728;23.296;2023-08-30T05:55:43;13.60;;;3.80;;
6850;SDS011;3464;42.728;23.296;2023-08-30T05:58:37;14.13;;;3.80;;
6850;SDS011;3464;42.728;23.296;2023-08-30T06:01:23;13.97;;;3.80;;
6850;SDS011;3464;42.728;23.296;2023-08-30T06:04:03;11.13;;;3.50;;
6850;SDS011;3464;42.728;23.296;2023-08-30T06:06:36;13.80;;;3.57;;
6850;SDS011;3464;42.728;23.296;2023-08-30T06:09:02;16.23;;;3.90;;
6850;SDS011;3464;42.728;23.296;2023-08-30T06:11:30;13.40;;;4.37;;
6850;SDS011;3464;42.728;23.296;2023-08-30T06:13:57;15.37;;;4.00;;
6850;SDS011;3464;42.728;23.296;2023-08-30T06:16:24;13.50;;;3.60;;
6850;SDS011;3464;42.728;23.296;2023-08-30T06:18:51;12.63;;;3.70;;
6850;SDS011;3464;42.728;23.296;2023-08-30T06:21:18;15.17;;;4.17;;
6850;SDS011;3464;42.728;23.296;2023-08-30T06:23:48;13.63;;;4.10;;
6850;SDS011;3464;42.728;23.296;2023-08-30T06:26:20;14.50;;;4.10;;
6850;SDS011;3464;42.728;23.296;2023-08-30T06:28:50;17.27;;;4.23;;
6850;SDS011;3464;42.728;23.296;2023-08-30T06:31:27;13.40;;;4.30;;
6850;SDS011;3464;42.728;23.296;2023-08-30T06:34:03;13.80;;;4.20;;
6850;SDS011;3464;42.728;23.296;2023-08-30T06:36:45;13.17;;;3.80;;
6850;SDS011;3464;42.728;23.296;2023-08-30T06:39:13;12.27;;;3.77;;
6850;SDS011;3464;42.728;23.296;2023-08-30T06:41:40;12.53;;;3.87;;
6850;SDS011;3464;42.728;23.296;2023-08-30T06:44:06;28.87;;;5.80;;
6850;SDS011;3464;42.728;23.296;2023-08-30T06:46:34;129.90;;;19.57;;
6850;SDS011;3464;42.728;23.296;2023-08-30T06:49:01;16.57;;;4.40;;
6850;SDS011;3464;42.728;23.296;2023-08-30T06:51:27;12.60;;;3.97;;
6850;SDS011;3464;42.728;23.296;2023-08-30T06:53:53;13.07;;;4.03;;
6850;SDS011;3464;42.728;23.296;2023-08-30T06:56:20;12.90;;;3.90;;
6850;SDS011;3464;42.728;23.296;2023-08-30T06:58:47;17.17;;;4.63;;
6850;SDS011;3464;42.728;23.296;2023-08-30T07:01:14;15.23;;;5.00;;
6850;SDS011;3464;42.728;23.296;2023-08-30T07:03:40;13.03;;;4.27;;
6850;SDS011;3464;42.728;23.296;2023-08-30T07:06:07;14.27;;;4.47;;
6850;SDS011;3464;42.728;23.296;2023-08-30T07:08:35;17.40;;;5.07;;
6850;SDS011;3464;42.728;23.296;2023-08-30T07:11:02;14.87;;;4.10;;
6850;SDS011;3464;42.728;23.296;2023-08-30T07:13:28;13.87;;;4.60;;
6850;SDS011;3464;42.728;23.296;2023-08-30T07:15:55;17.67;;;4.80;;
6850;SDS011;3464;42.728;23.296;2023-08-30T07:18:29;13.87;;;4.40;;
6850;SDS011;3464;42.728;23.296;2023-08-30T07:20:58;13.40;;;4.33;;
6850;SDS011;3464;42.728;23.296;2023-08-30T07:23:28;12.80;;;3.80;;
6850;SDS011;3464;42.728;23.296;2023-08-30T07:25:56;14.43;;;4.57;;
6850;SDS011;3464;42.728;23.296;2023-08-30T07:28:24;20.70;;;4.67;;
6850;SDS011;3464;42.728;23.296;2023-08-30T07:30:51;13.90;;;4.53;;
6850;SDS011;3464;42.728;23.296;2023-08-30T07:33:19;18.80;;;5.00;;
6850;SDS011;3464;42.728;23.296;2023-08-30T07:35:47;11.90;;;3.93;;
6850;SDS011;3464;42.728;23.296;2023-08-30T07:38:15;14.10;;;5.30;;
6850;SDS011;3464;42.728;23.296;2023-08-30T07:40:42;16.40;;;5.03;;
6850;SDS011;3464;42.728;23.296;2023-08-30T07:43:13;14.00;;;4.23;;
6850;SDS011;3464;42.728;23.296;2023-08-30T07:51:41;13.10;;;4.33;;
6850;SDS011;3464;42.728;23.296;2023-08-30T07:54:13;13.17;;;4.70;;
6850;SDS011;3464;42.728;23.296;2023-08-30T07:56:40;13.77;;;4.47;;
6850;SDS011;3464;42.728;23.296;2023-08-30T07:59:09;16.60;;;5.00;;
6850;SDS011;3464;42.728;23.296;2023-08-30T08:01:35;16.57;;;4.60;;
6850;SDS011;3464;42.728;23.296;2023-08-30T08:04:02;12.83;;;4.57;;
6850;SDS011;3464;42.728;23.296;2023-08-30T08:06:28;15.00;;;4.70;;
6850;SDS011;3464;42.728;23.296;2023-08-30T08:08:56;14.20;;;4.77;;
6850;SDS011;3464;42.728;23.296;2023-08-30T08:11:22;13.07;;;4.40;;
6850;SDS011;3464;42.728;23.296;2023-08-30T08:13:52;13.30;;;4.47;;
6850;SDS011;3464;42.728;23.296;2023-08-30T08:16:20;15.73;;;4.50;;
6850;SDS011;3464;42.728;23.296;2023-08-30T08:18:47;14.47;;;5.03;;
6850;SDS011;3464;42.728;23.296;2023-08-30T08:21:13;16.47;;;4.37;;
6850;SDS011;3464;42.728;23.296;2023-08-30T08:23:40;12.07;;;4.57;;
6850;SDS011;3464;42.728;23.296;2023-08-30T08:26:08;13.33;;;4.73;;
6850;SDS011;3464;42.728;23.296;2023-08-30T08:32:27;12.17;;;4.77;;
6850;SDS011;3464;42.728;23.296;2023-08-30T08:41:21;13.57;;;3.90;;
6850;SDS011;3464;42.728;23.296;2023-08-30T08:44:10;11.60;;;4.10;;
6850;SDS011;3464;42.728;23.296;2023-08-30T08:46:39;14.43;;;4.13;;
6850;SDS011;3464;42.728;23.296;2023-08-30T08:49:08;13.00;;;4.07;;
6850;SDS011;3464;42.728;23.296;2023-08-30T08:51:41;11.53;;;3.80;;
6850;SDS011;3464;42.728;23.296;2023-08-30T09:03:23;11.70;;;3.60;;
6850;SDS011;3464;42.728;23.296;2023-08-30T09:05:51;17.00;;;4.10;;
6850;SDS011;3464;42.728;23.296;2023-08-30T09:08:21;14.00;;;3.87;;
6850;SDS011;3464;42.728;23.296;2023-08-30T09:10:52;15.90;;;4.10;;
6850;SDS011;3464;42.728;23.296;2023-08-30T09:16:18;14.47;;;3.60;;
6850;SDS011;3464;42.728;23.296;2023-08-30T09:18:56;12.17;;;3.93;;
6850;SDS011;3464;42.728;23.296;2023-08-30T09:21:19;12.37;;;3.97;;
6850;SDS011;3464;42.728;23.296;2023-08-30T09:23:45;13.40;;;3.90;;
6850;SDS011;3464;42.728;23.296;2023-08-30T09:26:13;19.00;;;3.70;;
6850;SDS011;3464;42.728;23.296;2023-08-30T09:28:41;12.83;;;4.17;;
6850;SDS011;3464;42.728;23.296;2023-08-30T09:31:07;14.23;;;4.73;;
6850;SDS011;3464;42.728;23.296;2023-08-30T09:33:38;13.93;;;4.37;;
6850;SDS011;3464;42.728;23.296;2023-08-30T09:36:09;13.17;;;4.53;;
6850;SDS011;3464;42.728;23.296;2023-08-30T09:38:31;13.63;;;4.53;;
6850;SDS011;3464;42.728;23.296;2023-08-30T09:41:03;16.03;;;4.67;;
6850;SDS011;3464;42.728;23.296;2023-08-30T09:43:33;12.07;;;4.33;;
6850;SDS011;3464;42.728;23.296;2023-08-30T09:46:03;12.90;;;4.50;;
6850;SDS011;3464;42.728;23.296;2023-08-30T09:48:30;12.83;;;4.30;;
6850;SDS011;3464;42.728;23.296;2023-08-30T09:50:57;24.03;;;5.27;;
6850;SDS011;3464;42.728;23.296;2023-08-30T09:53:24;11.40;;;3.70;;
6850;SDS011;3464;42.728;23.296;2023-08-30T09:55:51;16.30;;;5.33;;
6850;SDS011;3464;42.728;23.296;2023-08-30T09:58:21;15.07;;;4.77;;
6850;SDS011;3464;42.728;23.296;2023-08-30T10:00:48;13.10;;;4.20;;
6850;SDS011;3464;42.728;23.296;2023-08-30T10:03:15;15.07;;;4.93;;
6850;SDS011;3464;42.728;23.296;2023-08-30T10:05:42;13.07;;;4.03;;
6850;SDS011;3464;42.728;23.296;2023-08-30T10:08:09;13.90;;;4.70;;
6850;SDS011;3464;42.728;23.296;2023-08-30T10:10:35;15.43;;;5.57;;
6850;SDS011;3464;42.728;23.296;2023-08-30T10:13:03;14.93;;;4.30;;
6850;SDS011;3464;42.728;23.296;2023-08-30T10:18:19;13.10;;;4.47;;
6850;SDS011;3464;42.728;23.296;2023-08-30T10:20:47;13.50;;;5.00;;
6850;SDS011;3464;42.728;23.296;2023-08-30T10:23:15;23.13;;;5.03;;
6850;SDS011;3464;42.728;23.296;2023-08-30T10:25:41;16.23;;;4.93;;
6850;SDS011;3464;42.728;23.296;2023-08-30T10:28:10;16.70;;;5.83;;
6850;SDS011;3464;42.728;23.296;2023-08-30T10:30:37;16.90;;;4.90;;
6850;SDS011;3464;42.728;23.296;2023-08-30T10:33:11;13.60;;;4.73;;
6850;SDS011;3464;42.728;23.296;2023-08-30T10:35:32;18.20;;;5.10;;
6850;SDS011;3464;42.728;23.296;2023-08-30T10:37:59;12.57;;;5.17;;
6850;SDS011;3464;42.728;23.296;2023-08-30T10:43:12;15.47;;;5.00;;
6850;SDS011;3464;42.728;23.296;2023-08-30T10:45:44;18.00;;;5.90;;
6850;SDS011;3464;42.728;23.296;2023-08-30T10:48:21;14.77;;;5.00;;
6850;SDS011;3464;42.728;23.296;2023-08-30T10:50:49;13.30;;;5.13;;
6850;SDS011;3464;42.728;23.296;2023-08-30T10:53:16;19.93;;;5.90;;
6850;SDS011;3464;42.728;23.296;2023-08-30T10:56:02;15.13;;;6.00;;
6850;SDS011;3464;42.728;23.296;2023-08-30T10:58:13;15.80;;;4.93;;
6850;SDS011;3464;42.728;23.296;2023-08-30T11:00:36;16.70;;;5.30;;
6850;SDS011;3464;42.728;23.296;2023-08-30T11:03:03;17.23;;;5.83;;
6850;SDS011;3464;42.728;23.296;2023-08-30T11:05:30;13.80;;;5.50;;
6850;SDS011;3464;42.728;23.296;2023-08-30T11:07:56;14.23;;;4.93;;
6850;SDS011;3464;42.728;23.296;2023-08-30T11:10:23;14.60;;;5.43;;
6850;SDS011;3464;42.728;23.296;2023-08-30T11:12:49;16.40;;;5.90;;
6850;SDS011;3464;42.728;23.296;2023-08-30T11:15:16;17.60;;;5.20;;
6850;SDS011;3464;42.728;23.296;2023-08-30T11:17:43;13.93;;;5.30;;
6850;SDS011;3464;42.728;23.296;2023-08-30T11:20:12;15.00;;;5.30;;
6850;SDS011;3464;42.728;23.296;2023-08-30T11:22:47;13.67;;;5.53;;
6850;SDS011;3464;42.728;23.296;2023-08-30T11:25:14;18.83;;;5.23;;
6850;SDS011;3464;42.728;23.296;2023-08-30T11:27:41;15.07;;;5.50;;
6850;SDS011;3464;42.728;23.296;2023-08-30T11:30:08;13.43;;;4.83;;
6850;SDS011;3464;42.728;23.296;2023-08-30T11:32:36;14.13;;;5.10;;
6850;SDS011;3464;42.728;23.296;2023-08-30T11:35:06;13.90;;;4.57;;
6850;SDS011;3464;42.728;23.296;2023-08-30T11:40:11;14.00;;;4.90;;
6850;SDS011;3464;42.728;23.296;2023-08-30T11:42:44;12.53;;;4.47;;
6850;SDS011;3464;42.728;23.296;2023-08-30T11:45:19;19.40;;;4.80;;
6850;SDS011;3464;42.728;23.296;2023-08-30T11:53:28;11.80;;;4.60;;
6850;SDS011;3464;42.728;23.296;2023-08-30T11:55:55;11.93;;;4.30;;
6850;SDS011;3464;42.728;23.296;2023-08-30T11:58:21;14.20;;;4.43;;
6850;SDS011;3464;42.728;23.296;2023-08-30T12:00:53;18.80;;;4.73;;
6850;SDS011;3464;42.728;23.296;2023-08-30T12:03:29;12.70;;;4.77;;
6850;SDS011;3464;42.728;23.296;2023-08-30T12:05:56;12.23;;;5.07;;
6850;SDS011;3464;42.728;23.296;2023-08-30T12:08:23;14.60;;;4.97;;
6850;SDS011;3464;42.728;23.296;2023-08-30T12:10:49;12.50;;;4.70;;
6850;SDS011;3464;42.728;23.296;2023-08-30T12:15:51;12.07;;;4.23;;
6850;SDS011;3464;42.728;23.296;2023-08-30T12:18:23;13.10;;;4.90;;
6850;SDS011;3464;42.728;23.296;2023-08-30T12:20:51;14.27;;;5.03;;
6850;SDS011;3464;42.728;23.296;2023-08-30T12:23:23;16.10;;;5.40;;
6850;SDS011;3464;42.728;23.296;2023-08-30T12:28:27;14.03;;;5.07;;
6850;SDS011;3464;42.728;23.296;2023-08-30T12:30:56;12.90;;;4.70;;
6850;SDS011;3464;42.728;23.296;2023-08-30T12:33:29;12.07;;;4.90;;
6850;SDS011;3464;42.728;23.296;2023-08-30T12:35:56;18.33;;;5.53;;
6850;SDS011;3464;42.728;23.296;2023-08-30T12:38:30;12.70;;;4.80;;
6850;SDS011;3464;42.728;23.296;2023-08-30T12:40:56;14.23;;;5.20;;
6850;SDS011;3464;42.728;23.296;2023-08-30T12:43:24;12.67;;;5.00;;
6850;SDS011;3464;42.728;23.296;2023-08-30T12:45:50;15.70;;;5.67;;
6850;SDS011;3464;42.728;23.296;2023-08-30T12:48:17;12.67;;;5.57;;
6850;SDS011;3464;42.728;23.296;2023-08-30T12:50:45;13.57;;;5.20;;
6850;SDS011;3464;42.728;23.296;2023-08-30T12:53:11;14.60;;;5.07;;
6850;SDS011;3464;42.728;23.296;2023-08-30T12:55:39;16.53;;;4.60;;
6850;SDS011;3464;42.728;23.296;2023-08-30T12:58:06;14.27;;;4.70;;
6850;SDS011;3464;42.728;23.296;2023-08-30T13:00:32;16.53;;;5.00;;
6850;SDS011;3464;42.728;23.296;2023-08-30T13:02:59;14.43;;;5.03;;
6850;SDS011;3464;42.728;23.296;2023-08-30T13:05:25;14.80;;;5.50;;
6850;SDS011;3464;42.728;23.296;2023-08-30T13:07:52;16.30;;;4.80;;
6850;SDS011;3464;42.728;23.296;2023-08-30T13:10:18;21.43;;;5.47;;
6850;SDS011;3464;42.728;23.296;2023-08-30T13:12:46;13.17;;;4.50;;
6850;SDS011;3464;42.728;23.296;2023-08-30T13:15:13;13.77;;;4.50;;
6850;SDS011;3464;42.728;23.296;2023-08-30T13:17:39;18.13;;;4.90;;
6850;SDS011;3464;42.728;23.296;2023-08-30T13:20:06;11.40;;;4.43;;
6850;SDS011;3464;42.728;23.296;2023-08-30T13:22:33;13.77;;;4.50;;
6850;SDS011;3464;42.728;23.296;2023-08-30T13:24:59;14.07;;;4.60;;
6850;SDS011;3464;42.728;23.296;2023-08-30T13:27:26;14.73;;;4.73;;
6850;SDS011;3464;42.728;23.296;2023-08-30T13:29:52;14.30;;;4.43;;
6850;SDS011;3464;42.728;23.296;2023-08-30T13:32:19;12.90;;;4.57;;
6850;SDS011;3464;42.728;23.296;2023-08-30T13:34:45;13.53;;;4.40;;
6850;SDS011;3464;42.728;23.296;2023-08-30T13:37:12;18.23;;;4.33;;
6850;SDS011;3464;42.728;23.296;2023-08-30T13:39:41;12.17;;;4.83;;
6850;SDS011;3464;42.728;23.296;2023-08-30T13:42:07;12.50;;;4.40;;
6850;SDS011;3464;42.728;23.296;2023-08-30T13:44:34;12.23;;;4.33;;
6850;SDS011;3464;42.728;23.296;2023-08-30T13:47:01;14.93;;;4.70;;
6850;SDS011;3464;42.728;23.296;2023-08-30T13:49:27;11.90;;;4.20;;
6850;SDS011;3464;42.728;23.296;2023-08-30T13:51:54;11.90;;;4.57;;
6850;SDS011;3464;42.728;23.296;2023-08-30T13:54:21;13.03;;;4.43;;
6850;SDS011;3464;42.728;23.296;2023-08-30T13:56:48;14.43;;;4.33;;
6850;SDS011;3464;42.728;23.296;2023-08-30T13:59:15;12.53;;;4.17;;
6850;SDS011;3464;42.728;23.296;2023-08-30T14:01:41;11.60;;;4.40;;
6850;SDS011;3464;42.728;23.296;2023-08-30T14:04:09;13.77;;;4.27;;
6850;SDS011;3464;42.728;23.296;2023-08-30T14:06:35;12.00;;;4.10;;
6850;SDS011;3464;42.728;23.296;2023-08-30T14:09:02;12.40;;;4.43;;
6850;SDS011;3464;42.728;23.296;2023-08-30T14:11:28;11.93;;;4.13;;
6850;SDS011;3464;42.728;23.296;2023-08-30T14:13:55;13.63;;;4.37;;
6850;SDS011;3464;42.728;23.296;2023-08-30T14:16:21;12.20;;;4.13;;
6850;SDS011;3464;42.728;23.296;2023-08-30T14:18:48;14.10;;;4.33;;
6850;SDS011;3464;42.728;23.296;2023-08-30T14:21:14;12.63;;;4.07;;
6850;SDS011;3464;42.728;23.296;2023-08-30T14:23:41;12.73;;;3.70;;
6850;SDS011;3464;42.728;23.296;2023-08-30T14:26:07;12.40;;;3.83;;
6850;SDS011;3464;42.728;23.296;2023-08-30T14:28:35;10.90;;;3.37;;
6850;SDS011;3464;42.728;23.296;2023-08-30T14:31:02;12.93;;;3.80;;
6850;SDS011;3464;42.728;23.296;2023-08-30T14:33:29;16.87;;;4.27;;
6850;SDS011;3464;42.728;23.296;2023-08-30T14:35:55;13.33;;;3.73;;
6850;SDS011;3464;42.728;23.296;2023-08-30T14:38:23;15.53;;;4.27;;
6850;SDS011;3464;42.728;23.296;2023-08-30T14:40:55;13.00;;;4.00;;
6850;SDS011;3464;42.728;23.296;2023-08-30T14:43:22;20.40;;;4.73;;
6850;SDS011;3464;42.728;23.296;2023-08-30T14:45:48;14.73;;;4.40;;
6850;SDS011;3464;42.728;23.296;2023-08-30T14:48:15;13.10;;;4.10;;
6850;SDS011;3464;42.728;23.296;2023-08-30T14:50:41;11.87;;;4.07;;
6850;SDS011;3464;42.728;23.296;2023-08-30T14:53:08;14.53;;;4.10;;
6850;SDS011;3464;42.728;23.296;2023-08-30T14:55:34;16.30;;;4.37;;
6850;SDS011;3464;42.728;23.296;2023-08-30T14:58:01;14.20;;;3.70;;
6850;SDS011;3464;42.728;23.296;2023-08-30T15:00:28;11.13;;;3.47;;
6850;SDS011;3464;42.728;23.296;2023-08-30T15:02:55;14.03;;;3.63;;
6850;SDS011;3464;42.728;23.296;2023-08-30T15:05:22;14.30;;;3.60;;
6850;SDS011;3464;42.728;23.296;2023-08-30T15:07:48;18.27;;;4.30;;
6850;SDS011;3464;42.728;23.296;2023-08-30T15:10:15;15.90;;;3.30;;
6850;SDS011;3464;42.728;23.296;2023-08-30T15:12:42;15.87;;;4.33;;
6850;SDS011;3464;42.728;23.296;2023-08-30T15:15:08;16.90;;;3.23;;
6850;SDS011;3464;42.728;23.296;2023-08-30T15:17:35;14.40;;;3.00;;
6850;SDS011;3464;42.728;23.296;2023-08-30T15:20:02;15.67;;;3.87;;
6850;SDS011;3464;42.728;23.296;2023-08-30T15:22:29;11.23;;;3.20;;
6850;SDS011;3464;42.728;23.296;2023-08-30T15:24:55;11.03;;;2.80;;
6850;SDS011;3464;42.728;23.296;2023-08-30T15:30:49;14.50;;;3.60;;
6850;SDS011;3464;42.728;23.296;2023-08-30T15:43:00;12.27;;;3.60;;
6850;SDS011;3464;42.728;23.296;2023-08-30T15:49:05;12.50;;;3.70;;
6850;SDS011;3464;42.728;23.296;2023-08-30T15:51:35;19.13;;;3.70;;
6850;SDS011;3464;42.728;23.296;2023-08-30T15:54:01;13.23;;;3.10;;
6850;SDS011;3464;42.728;23.296;2023-08-30T15:56:29;11.93;;;3.37;;
6850;SDS011;3464;42.728;23.296;2023-08-30T15:58:57;12.70;;;3.60;;
6850;SDS011;3464;42.728;23.296;2023-08-30T16:01:54;13.70;;;3.50;;
6850;SDS011;3464;42.728;23.296;2023-08-30T16:04:23;15.00;;;3.13;;
6850;SDS011;3464;42.728;23.296;2023-08-30T16:06:54;14.10;;;3.67;;
6850;SDS011;3464;42.728;23.296;2023-08-30T16:12:43;12.47;;;3.27;;
6850;SDS011;3464;42.728;23.296;2023-08-30T16:15:32;11.63;;;3.13;;
6850;SDS011;3464;42.728;23.296;2023-08-30T16:17:59;10.80;;;3.33;;
6850;SDS011;3464;42.728;23.296;2023-08-30T16:20:26;12.83;;;3.30;;
6850;SDS011;3464;42.728;23.296;2023-08-30T16:22:52;12.10;;;3.37;;
6850;SDS011;3464;42.728;23.296;2023-08-30T16:25:19;12.20;;;3.70;;
6850;SDS011;3464;42.728;23.296;2023-08-30T16:27:46;14.77;;;4.10;;
6850;SDS011;3464;42.728;23.296;2023-08-30T16:30:13;12.57;;;3.30;;
6850;SDS011;3464;42.728;23.296;2023-08-30T16:32:41;13.67;;;3.67;;
6850;SDS011;3464;42.728;23.296;2023-08-30T16:35:08;14.00;;;3.37;;
6850;SDS011;3464;42.728;23.296;2023-08-30T16:37:34;33.67;;;5.17;;
6850;SDS011;3464;42.728;23.296;2023-08-30T16:40:02;15.63;;;3.73;;
6850;SDS011;3464;42.728;23.296;2023-08-30T16:42:28;13.10;;;3.57;;
6850;SDS011;3464;42.728;23.296;2023-08-30T16:44:55;11.70;;;3.67;;
6850;SDS011;3464;42.728;23.296;2023-08-30T16:47:23;13.60;;;3.53;;
6850;SDS011;3464;42.728;23.296;2023-08-30T16:49:50;13.00;;;3.90;;
6850;SDS011;3464;42.728;23.296;2023-08-30T16:52:16;12.27;;;3.60;;
6850;SDS011;3464;42.728;23.296;2023-08-30T16:54:44;13.20;;;3.90;;
6850;SDS011;3464;42.728;23.296;2023-08-30T16:57:10;14.27;;;3.63;;
6850;SDS011;3464;42.728;23.296;2023-08-30T16:59:37;12.00;;;3.90;;
6850;SDS011;3464;42.728;23.296;2023-08-30T17:02:03;22.43;;;3.73;;
6850;SDS011;3464;42.728;23.296;2023-08-30T17:04:30;15.50;;;3.60;;
6850;SDS011;3464;42.728;23.296;2023-08-30T17:06:57;13.17;;;3.33;;
6850;SDS011;3464;42.728;23.296;2023-08-30T17:09:26;14.37;;;3.80;;
6850;SDS011;3464;42.728;23.296;2023-08-30T17:11:52;13.47;;;3.77;;
6850;SDS011;3464;42.728;23.296;2023-08-30T17:14:19;13.47;;;3.40;;
6850;SDS011;3464;42.728;23.296;2023-08-30T17:16:46;12.93;;;3.47;;
6850;SDS011;3464;42.728;23.296;2023-08-30T17:19:13;15.97;;;4.03;;
6850;SDS011;3464;42.728;23.296;2023-08-30T17:21:40;14.43;;;3.67;;
6850;SDS011;3464;42.728;23.296;2023-08-30T17:24:07;13.80;;;4.00;;
6850;SDS011;3464;42.728;23.296;2023-08-30T17:26:35;16.37;;;4.20;;
6850;SDS011;3464;42.728;23.296;2023-08-30T17:29:02;13.00;;;3.97;;
6850;SDS011;3464;42.728;23.296;2023-08-30T17:31:29;21.23;;;4.40;;
6850;SDS011;3464;42.728;23.296;2023-08-30T17:33:57;17.30;;;3.60;;
6850;SDS011;3464;42.728;23.296;2023-08-30T17:36:23;11.43;;;3.53;;
6850;SDS011;3464;42.728;23.296;2023-08-30T17:38:51;17.63;;;3.90;;
6850;SDS011;3464;42.728;23.296;2023-08-30T17:41:17;13.13;;;3.57;;
6850;SDS011;3464;42.728;23.296;2023-08-30T17:43:44;12.17;;;3.57;;
6850;SDS011;3464;42.728;23.296;2023-08-30T17:46:11;14.40;;;3.40;;
6850;SDS011;3464;42.728;23.296;2023-08-30T17:48:37;13.70;;;4.20;;
6850;SDS011;3464;42.728;23.296;2023-08-30T17:51:05;12.80;;;4.17;;
6850;SDS011;3464;42.728;23.296;2023-08-30T17:53:32;12.80;;;3.50;;
6850;SDS011;3464;42.728;23.296;2023-08-30T17:55:59;14.00;;;3.90;;
6850;SDS011;3464;42.728;23.296;2023-08-30T17:58:27;13.07;;;4.37;;
6850;SDS011;3464;42.728;23.296;2023-08-30T18:00:53;14.30;;;3.80;;
6850;SDS011;3464;42.728;23.296;2023-08-30T18:03:20;12.93;;;4.10;;